Terminal Aerodrome Forecast
Issued by NWS

Home | Current Version | Previous Version | Text Only | Print | Product List | Glossary On
Versions: 1 2 3 4 5 6 7 8 9 10 11 12 13 14 15 16 17 18 19 20
000
FTUS43 KDVN 300655 AAB
TAFBRL
TAF AMD
KBRL 300655Z 3007/3106 04003KT 2SM BR BKN003
      TEMPO 3007/3009 1/4SM FG VV002
     FM300900 03002KT 1/4SM FG VV001
     FM301300 VRB03KT 1/2SM FG OVC003
     FM301500 10004KT 2SM BR OVC005
     FM301800 14004KT P6SM SCT025=

USA.gov is the U.S. government's official web portal to all federal, state and local government web resources and services.